This is the latest recevied weather packets stored in our database for station/object KF5VOI. If no packets are shown the sender has not sent any weather packets the latest 10 day(s).
| Time | Temp. | Humidity | Pressure | Rain* | Wind** | Luminosity | Snow |
|---|---|---|---|---|---|---|---|
| 1777996594 | 27.22° C | 73% | 1015.2 hPa | 0 mm | - | - | - |
| 1777994794 | 27.22° C | 73% | 1015.2 hPa | 0 mm | - | - | - |
| 1777992996 | 26.11° C | 75% | 1015.2 hPa | 0 mm | - | - | - |
| 1777991195 | 25.56° C | 78% | 1015.1 hPa | 0 mm | - | - | - |
| 1777989394 | 25.56° C | 81% | 1015.3 hPa | 0 mm | - | - | - |
| 1777985794 | 21.11° C | 92% | 1014.8 hPa | 0 mm | - | - | - |
| 1777983994 | 20° C | 94% | 1014.3 hPa | 0 mm | - | - | - |
| 1777982194 | 18.89° C | 97% | 1014.3 hPa | 0 mm | - | - | - |
| 1777980394 | 18.33° C | 99% | 1014.3 hPa | 0 mm | - | - | - |
| 1777978594 | 18.33° C | 99% | 1014.3 hPa | 0 mm | - | - | - |
| 1777976796 | 17.78° C | 99% | 1014.5 hPa | 0 mm | - | - | - |
| 1777974996 | 17.78° C | 98% | 1014.4 hPa | 0 mm | - | - | - |
| 1777973232 | 17.78° C | 97% | 1014.2 hPa | 0 mm | - | - | - |
| 1777973195 | 17.78° C | 97% | 1014.2 hPa | 0 mm | - | - | - |
| 1777969596 | 17.78° C | 96% | 1014.4 hPa | 0 mm | - | - | - |
| 1777967795 | 17.78° C | 94% | 1014.4 hPa | 0 mm | - | - | - |
| 1777965996 | 17.78° C | 93% | 1014.7 hPa | 0 mm | - | - | - |
| 1777964332 | 17.78° C | 91% | 1015.1 hPa | 0 mm | - | - | - |
| 1777964194 | 17.78° C | 91% | 1015.1 hPa | 0 mm | - | - | - |
| 1777962394 | 17.78° C | 92% | 1015.5 hPa | 0 mm | - | - | - |
| 1777960594 | 17.78° C | 90% | 1015.5 hPa | 0 mm | - | - | - |
| 1777958794 | 18.33° C | 88% | 1015.3 hPa | 0 mm | - | - | - |
| 1777956994 | 18.33° C | 87% | 1015.7 hPa | 0 mm | - | - | - |
| 1777955195 | 18.33° C | 84% | 1016 hPa | 0 mm | - | - | - |
| 1777953394 | 18.89° C | 81% | 1016 hPa | 0 mm | - | - | - |
* Rain latest hour (hover to see other rain measurements)
** Current wind speed in m/s (hover to see current wind gust speed)